createdAt,value
2022-10-19T01:06:15.564Z,5.63
2022-10-19T01:30:20.953Z,3.17
2022-10-19T02:04:49.661Z,3.75
2022-10-19T02:09:57.130Z,3.33
2022-10-19T02:15:12.673Z,5.95
2022-10-19T02:20:23.924Z,5.65
2022-10-19T02:25:31.492Z,5.38
2022-10-19T02:30:39.021Z,5.00
2022-10-19T02:35:49.414Z,4.40
2022-10-19T02:41:06.849Z,5.60
2022-10-19T02:46:18.592Z,7.53
2022-10-19T02:51:37.702Z,8.23
2022-10-19T02:56:45.221Z,4.38
2022-10-19T03:01:53.004Z,7.35
2022-10-19T03:07:03.682Z,6.65
2022-10-19T03:12:11.209Z,10.27
2022-10-19T03:17:18.749Z,8.68
2022-10-19T03:22:29.149Z,5.60
2022-10-19T03:27:36.960Z,6.43
2022-10-19T03:32:44.554Z,16.33
2022-10-19T03:37:54.679Z,6.07
2022-10-19T03:43:02.192Z,5.60
2022-10-19T03:48:09.761Z,8.07
2022-10-19T03:53:20.658Z,7.88
2022-10-19T03:58:28.131Z,10.20
2022-10-19T04:09:06.318Z,7.88
2022-10-19T04:14:22.820Z,4.53
2022-10-19T04:19:40.511Z,3.97
2022-10-19T04:24:51.403Z,5.10
2022-10-19T04:29:58.880Z,5.38
2022-10-19T04:35:07.247Z,3.88
2022-10-19T04:40:17.798Z,6.40
2022-10-19T04:45:25.290Z,6.88
2022-10-19T04:50:32.798Z,5.68
2022-10-19T04:55:45.981Z,6.82
2022-10-19T05:00:53.695Z,5.65
2022-10-19T05:06:02.078Z,10.95
2022-10-19T05:11:14.742Z,6.78
2022-10-19T05:16:24.029Z,8.57
2022-10-19T05:21:32.212Z,5.63
2022-10-19T05:26:42.656Z,5.75
2022-10-19T05:31:50.144Z,7.60
2022-10-19T05:36:58.098Z,5.97
2022-10-19T05:42:08.260Z,4.68
2022-10-19T05:47:15.820Z,4.75
2022-10-19T05:52:23.320Z,4.18
2022-10-19T05:57:35.092Z,3.90
2022-10-19T06:02:43.768Z,10.07
2022-10-19T06:07:51.249Z,9.48
2022-10-19T06:13:01.501Z,14.18
2022-10-19T06:18:09.382Z,8.90
2022-10-19T06:23:16.856Z,7.53
2022-10-19T06:28:27.058Z,9.35
2022-10-19T06:33:34.627Z,7.85
2022-10-19T06:38:42.300Z,4.00
2022-10-19T06:43:55.923Z,7.03
2022-10-19T06:49:04.749Z,8.57
2022-10-19T06:54:12.271Z,5.97
2022-10-19T06:59:22.421Z,6.15
2022-10-19T07:04:30.979Z,8.68
2022-10-19T07:09:38.483Z,5.93
2022-10-19T07:14:48.577Z,6.40
2022-10-19T07:19:56.135Z,5.93
2022-10-19T07:25:04.088Z,10.10
2022-10-19T07:30:15.064Z,6.03
2022-10-19T07:35:23.118Z,13.43
2022-10-19T07:40:30.599Z,7.35
2022-10-19T07:45:40.678Z,8.95
2022-10-19T07:50:50.626Z,9.05
2022-10-19T07:55:58.335Z,8.57
2022-10-19T08:01:10.956Z,8.27
2022-10-19T08:06:20.525Z,8.48
2022-10-19T08:11:30.655Z,8.18
2022-10-19T08:16:44.367Z,9.00
2022-10-19T08:21:52.882Z,10.30
2022-10-19T08:27:02.628Z,11.52
2022-10-19T08:32:12.713Z,9.02
2022-10-19T08:37:32.549Z,12.27
2022-10-19T08:42:55.387Z,11.27
2022-10-19T08:48:25.303Z,11.27
2022-10-19T08:53:43.391Z,8.13
2022-10-19T08:59:08.804Z,7.43
2022-10-19T09:04:25.150Z,8.43
2022-10-19T09:09:34.526Z,10.00
2022-10-19T09:14:54.660Z,8.95
2022-10-19T09:20:18.074Z,7.63
2022-10-19T09:25:29.228Z,7.32
2022-10-19T09:35:49.974Z,9.23
2022-10-19T09:40:59.869Z,7.82
2022-10-19T09:46:19.840Z,7.72
2022-10-19T09:51:43.772Z,7.20
2022-10-19T09:56:57.762Z,8.65
2022-10-19T10:02:24.758Z,6.97
2022-10-19T10:07:39.098Z,9.40
2022-10-19T10:12:46.758Z,7.35
2022-10-19T10:17:55.760Z,5.80
2022-10-19T10:23:08.869Z,8.00
2022-10-19T10:28:22.736Z,7.63
2022-10-19T10:33:44.256Z,6.20
2022-10-19T10:38:59.069Z,8.80
2022-10-19T10:44:11.812Z,7.80
2022-10-19T10:49:24.847Z,6.32
2022-10-19T10:54:36.140Z,4.68
2022-10-19T10:59:50.067Z,4.28
2022-10-19T11:05:08.927Z,3.15
2022-10-19T11:10:27.176Z,3.00
2022-10-19T11:15:39.727Z,2.85
2022-10-19T11:20:56.096Z,2.28
2022-10-19T11:26:15.989Z,3.03
2022-10-19T11:31:31.172Z,3.78
2022-10-19T11:36:48.987Z,3.20
2022-10-19T11:42:08.454Z,3.03
2022-10-19T11:47:30.021Z,2.75
2022-10-19T11:57:58.429Z,3.95
2022-10-19T12:03:51.203Z,3.90
2022-10-19T12:14:20.982Z,1.88
2022-10-19T12:19:32.557Z,1.90
2022-10-19T12:24:40.065Z,3.03
2022-10-19T12:29:52.763Z,2.05
2022-10-19T12:35:08.293Z,2.22
2022-10-19T12:40:25.524Z,2.00
2022-10-19T12:45:39.244Z,2.17
2022-10-19T12:51:12.119Z,3.22
2022-10-19T12:56:24.342Z,3.25
2022-10-19T13:01:46.472Z,2.78
2022-10-19T13:07:02.457Z,4.30
2022-10-19T13:12:44.130Z,2.75
2022-10-19T13:17:55.551Z,3.27
2022-10-19T13:23:32.960Z,5.50
2022-10-19T13:28:41.693Z,3.20
2022-10-19T13:33:56.433Z,3.25
2022-10-19T13:39:08.633Z,3.58
2022-10-19T13:44:39.521Z,3.97
2022-10-19T13:50:13.151Z,3.95
2022-10-19T13:56:02.931Z,2.95
2022-10-19T14:01:25.745Z,3.42
2022-10-19T14:06:39.582Z,3.65
2022-10-19T14:11:50.024Z,3.40
2022-10-19T14:17:02.964Z,4.73
2022-10-19T14:22:26.306Z,2.80
2022-10-19T14:27:34.619Z,4.10
2022-10-19T14:32:42.568Z,3.50
2022-10-19T14:37:53.182Z,4.00
2022-10-19T14:43:01.788Z,4.05
2022-10-19T14:48:19.715Z,3.60
2022-10-19T14:53:37.331Z,3.53
2022-10-19T14:58:50.777Z,3.97
2022-10-19T15:03:59.821Z,3.53
2022-10-19T15:09:19.574Z,5.78
2022-10-19T15:14:40.974Z,3.20
2022-10-19T15:19:48.719Z,2.97
2022-10-19T15:25:04.938Z,4.63
2022-10-19T15:30:28.646Z,4.32
2022-10-19T15:35:38.561Z,4.97
2022-10-19T15:40:49.735Z,3.95
2022-10-19T15:51:38.485Z,3.92
2022-10-19T15:56:53.025Z,4.25
2022-10-19T16:02:00.607Z,4.20
2022-10-19T16:07:08.684Z,3.90
2022-10-19T16:12:19.047Z,3.83
2022-10-19T16:17:27.087Z,4.70
2022-10-19T16:22:34.625Z,4.95
2022-10-19T16:27:44.903Z,5.95
2022-10-19T16:32:52.449Z,4.40
2022-10-19T16:38:00.080Z,7.65
2022-10-19T16:43:10.242Z,6.07
2022-10-19T16:48:21.855Z,5.68
2022-10-19T16:53:31.308Z,5.35
2022-10-19T16:58:42.970Z,6.32
2022-10-19T17:03:51.427Z,4.10
2022-10-19T17:14:30.399Z,5.20
2022-10-19T17:19:43.552Z,4.00
2022-10-19T17:24:51.071Z,6.55
2022-10-19T17:30:01.186Z,4.00
2022-10-19T17:35:10.228Z,6.72
2022-10-19T17:40:18.434Z,4.65
2022-10-19T17:45:28.701Z,5.40
2022-10-19T17:50:36.489Z,4.20
2022-10-19T17:55:44.042Z,5.50
2022-10-19T18:00:59.176Z,5.47
2022-10-19T18:06:10.797Z,4.53
2022-10-19T18:11:31.451Z,5.55
2022-10-19T18:16:44.776Z,6.18
2022-10-19T18:21:53.228Z,3.08
2022-10-19T18:27:00.857Z,5.18
2022-10-19T18:32:10.979Z,5.00
2022-10-19T18:37:18.487Z,4.07
2022-10-19T18:42:25.991Z,4.07
2022-10-19T18:47:36.091Z,4.90
2022-10-19T18:52:43.576Z,5.22
2022-10-19T18:57:51.219Z,3.90
2022-10-19T19:03:01.345Z,5.13
2022-10-19T19:13:22.128Z,4.55
2022-10-19T19:18:33.769Z,3.85
2022-10-19T19:23:41.401Z,3.40
2022-10-19T19:28:49.194Z,3.80
2022-10-19T19:34:02.381Z,3.65
2022-10-19T19:39:09.861Z,4.40
2022-10-19T19:44:17.542Z,5.40
2022-10-19T19:49:27.750Z,4.60
2022-10-19T19:54:35.228Z,6.63
2022-10-19T19:59:42.742Z,7.03
2022-10-19T20:04:52.874Z,3.53
2022-10-19T20:10:00.375Z,4.15
2022-10-19T20:15:09.275Z,4.07
2022-10-19T20:20:19.866Z,6.57
2022-10-19T20:25:27.510Z,4.68
2022-10-19T20:30:35.103Z,5.90
2022-10-19T20:35:45.256Z,3.42
2022-10-19T20:40:54.644Z,4.28
2022-10-19T20:46:06.455Z,3.58
2022-10-19T20:51:19.139Z,6.85
2022-10-19T20:56:29.256Z,7.10
2022-10-19T21:01:39.413Z,5.82
2022-10-19T21:06:51.448Z,10.75
2022-10-19T21:11:59.235Z,7.22
2022-10-19T21:17:06.730Z,3.65
2022-10-19T21:22:16.916Z,5.32
2022-10-19T21:27:24.395Z,4.10
2022-10-19T21:32:31.901Z,4.85
2022-10-19T21:37:42.246Z,3.63
2022-10-19T21:42:50.373Z,3.23
2022-10-19T21:47:57.869Z,3.65
2022-10-19T21:53:07.938Z,4.20
2022-10-19T21:58:15.793Z,3.83
2022-10-19T22:03:23.277Z,2.80
2022-10-19T22:08:33.452Z,4.65
2022-10-19T22:13:41.074Z,3.20
2022-10-19T22:18:49.424Z,2.97
2022-10-19T22:24:01.665Z,3.15
2022-10-19T22:29:10.285Z,3.67
2022-10-19T22:34:19.736Z,3.15
2022-10-19T22:39:30.113Z,4.28
2022-10-19T22:44:37.706Z,4.30
2022-10-19T22:49:45.194Z,3.13
2022-10-19T22:54:55.360Z,5.82
2022-10-19T23:00:02.878Z,2.80
2022-10-19T23:05:11.300Z,3.65
2022-10-19T23:10:21.464Z,6.18
2022-10-19T23:15:29.008Z,5.70
2022-10-19T23:20:36.685Z,6.22
2022-10-19T23:25:46.772Z,6.03
2022-10-19T23:30:56.146Z,6.45
2022-10-19T23:36:08.416Z,6.72
2022-10-19T23:41:19.136Z,5.07
2022-10-19T23:46:26.662Z,3.45
2022-10-19T23:51:34.478Z,4.40
2022-10-19T23:56:44.589Z,4.78
